sensor_id;sensor_type;location;lat;lon;timestamp;temperature;humidity
5775;DHT22;2913;51.120;6.772;2023-07-08T00:00:16;23.30;77.80
5775;DHT22;2913;51.120;6.772;2023-07-08T00:02:42;23.20;79.50
5775;DHT22;2913;51.120;6.772;2023-07-08T00:05:12;23.20;79.80
5775;DHT22;2913;51.120;6.772;2023-07-08T00:07:42;23.20;80.70
5775;DHT22;2913;51.120;6.772;2023-07-08T00:12:35;23.00;80.80
5775;DHT22;2913;51.120;6.772;2023-07-08T00:15:01;23.00;81.00
5775;DHT22;2913;51.120;6.772;2023-07-08T00:17:26;22.90;82.10
5775;DHT22;2913;51.120;6.772;2023-07-08T00:19:52;22.80;82.60
5775;DHT22;2913;51.120;6.772;2023-07-08T00:22:20;22.80;83.70
5775;DHT22;2913;51.120;6.772;2023-07-08T00:24:45;22.70;84.60
5775;DHT22;2913;51.120;6.772;2023-07-08T00:27:12;22.80;84.50
5775;DHT22;2913;51.120;6.772;2023-07-08T00:29:40;22.60;87.00
5775;DHT22;2913;51.120;6.772;2023-07-08T00:32:11;22.60;87.00
5775;DHT22;2913;51.120;6.772;2023-07-08T00:34:40;22.60;86.50
5775;DHT22;2913;51.120;6.772;2023-07-08T00:37:12;22.50;87.00
5775;DHT22;2913;51.120;6.772;2023-07-08T00:39:40;22.50;86.80
5775;DHT22;2913;51.120;6.772;2023-07-08T00:42:16;22.50;87.00
5775;DHT22;2913;51.120;6.772;2023-07-08T00:44:43;22.50;87.70
5775;DHT22;2913;51.120;6.772;2023-07-08T00:47:11;22.40;88.10
5775;DHT22;2913;51.120;6.772;2023-07-08T00:49:48;22.30;88.80
5775;DHT22;2913;51.120;6.772;2023-07-08T00:54:44;22.30;89.70
5775;DHT22;2913;51.120;6.772;2023-07-08T00:57:12;22.30;90.00
5775;DHT22;2913;51.120;6.772;2023-07-08T00:59:45;22.20;90.70
5775;DHT22;2913;51.120;6.772;2023-07-08T01:02:18;22.20;90.80
5775;DHT22;2913;51.120;6.772;2023-07-08T01:05:03;22.20;91.70
5775;DHT22;2913;51.120;6.772;2023-07-08T01:07:33;22.20;92.30
5775;DHT22;2913;51.120;6.772;2023-07-08T01:10:09;22.20;92.40
5775;DHT22;2913;51.120;6.772;2023-07-08T01:12:41;22.20;92.60
5775;DHT22;2913;51.120;6.772;2023-07-08T01:15:10;22.10;94.30
5775;DHT22;2913;51.120;6.772;2023-07-08T01:17:36;22.00;96.20
5775;DHT22;2913;51.120;6.772;2023-07-08T01:20:05;21.90;96.80
5775;DHT22;2913;51.120;6.772;2023-07-08T01:22:41;21.90;97.00
5775;DHT22;2913;51.120;6.772;2023-07-08T01:25:10;21.90;97.40
5775;DHT22;2913;51.120;6.772;2023-07-08T01:27:39;21.80;98.70
5775;DHT22;2913;51.120;6.772;2023-07-08T01:30:06;21.80;99.90
5775;DHT22;2913;51.120;6.772;2023-07-08T01:32:38;21.80;99.90
5775;DHT22;2913;51.120;6.772;2023-07-08T01:35:04;21.80;99.90
5775;DHT22;2913;51.120;6.772;2023-07-08T01:37:42;21.70;99.90
5775;DHT22;2913;51.120;6.772;2023-07-08T01:45:24;21.60;99.90
5775;DHT22;2913;51.120;6.772;2023-07-08T01:50:21;21.60;99.90
5775;DHT22;2913;51.120;6.772;2023-07-08T01:52:52;21.60;99.90
5775;DHT22;2913;51.120;6.772;2023-07-08T01:55:25;21.60;99.90
5775;DHT22;2913;51.120;6.772;2023-07-08T01:57:54;21.60;99.90
5775;DHT22;2913;51.120;6.772;2023-07-08T02:00:20;21.50;99.90
5775;DHT22;2913;51.120;6.772;2023-07-08T02:02:46;21.50;99.90
5775;DHT22;2913;51.120;6.772;2023-07-08T02:05:14;21.60;99.90
5775;DHT22;2913;51.120;6.772;2023-07-08T02:07:40;21.60;99.90
5775;DHT22;2913;51.120;6.772;2023-07-08T02:10:06;21.60;99.90
5775;DHT22;2913;51.120;6.772;2023-07-08T02:12:32;21.60;99.90
5775;DHT22;2913;51.120;6.772;2023-07-08T02:15:00;21.60;99.90
5775;DHT22;2913;51.120;6.772;2023-07-08T02:17:26;21.60;99.90
5775;DHT22;2913;51.120;6.772;2023-07-08T02:19:54;21.60;99.90
5775;DHT22;2913;51.120;6.772;2023-07-08T02:22:20;21.60;99.90
5775;DHT22;2913;51.120;6.772;2023-07-08T02:24:46;21.50;99.90
5775;DHT22;2913;51.120;6.772;2023-07-08T02:27:13;21.50;99.90
5775;DHT22;2913;51.120;6.772;2023-07-08T02:29:38;21.50;99.90
5775;DHT22;2913;51.120;6.772;2023-07-08T02:32:05;21.50;99.90
5775;DHT22;2913;51.120;6.772;2023-07-08T02:34:33;21.40;99.90
5775;DHT22;2913;51.120;6.772;2023-07-08T02:36:58;21.40;99.90
5775;DHT22;2913;51.120;6.772;2023-07-08T02:39:24;21.30;99.90
5775;DHT22;2913;51.120;6.772;2023-07-08T02:41:50;21.30;99.90
5775;DHT22;2913;51.120;6.772;2023-07-08T02:44:15;21.30;99.90
5775;DHT22;2913;51.120;6.772;2023-07-08T02:46:43;21.30;99.90
5775;DHT22;2913;51.120;6.772;2023-07-08T02:49:09;21.30;99.90
5775;DHT22;2913;51.120;6.772;2023-07-08T02:51:34;21.30;99.90
5775;DHT22;2913;51.120;6.772;2023-07-08T02:54:00;21.30;99.90
5775;DHT22;2913;51.120;6.772;2023-07-08T02:56:25;21.30;99.90
5775;DHT22;2913;51.120;6.772;2023-07-08T02:58:52;21.20;99.90
5775;DHT22;2913;51.120;6.772;2023-07-08T03:01:17;21.20;99.90
5775;DHT22;2913;51.120;6.772;2023-07-08T03:03:47;21.20;99.90
5775;DHT22;2913;51.120;6.772;2023-07-08T03:06:13;21.20;99.90
5775;DHT22;2913;51.120;6.772;2023-07-08T03:08:41;21.20;99.90
5775;DHT22;2913;51.120;6.772;2023-07-08T03:11:09;21.20;99.90
5775;DHT22;2913;51.120;6.772;2023-07-08T03:13:35;21.10;99.90
5775;DHT22;2913;51.120;6.772;2023-07-08T03:16:02;21.10;99.90
5775;DHT22;2913;51.120;6.772;2023-07-08T03:18:29;21.10;99.90
5775;DHT22;2913;51.120;6.772;2023-07-08T03:20:56;21.10;99.90
5775;DHT22;2913;51.120;6.772;2023-07-08T03:23:25;21.00;99.90
5775;DHT22;2913;51.120;6.772;2023-07-08T03:25:52;21.00;99.90
5775;DHT22;2913;51.120;6.772;2023-07-08T03:28:17;21.00;99.90
5775;DHT22;2913;51.120;6.772;2023-07-08T03:30:44;20.90;99.90
5775;DHT22;2913;51.120;6.772;2023-07-08T03:33:11;20.90;99.90
5775;DHT22;2913;51.120;6.772;2023-07-08T03:35:37;21.00;99.90
5775;DHT22;2913;51.120;6.772;2023-07-08T03:38:06;21.00;99.90
5775;DHT22;2913;51.120;6.772;2023-07-08T03:40:32;21.00;99.90
5775;DHT22;2913;51.120;6.772;2023-07-08T03:42:58;21.00;99.90
5775;DHT22;2913;51.120;6.772;2023-07-08T03:45:25;21.00;99.90
5775;DHT22;2913;51.120;6.772;2023-07-08T03:47:50;21.10;99.90
5775;DHT22;2913;51.120;6.772;2023-07-08T03:50:21;21.10;99.90
5775;DHT22;2913;51.120;6.772;2023-07-08T03:52:48;21.10;99.90
5775;DHT22;2913;51.120;6.772;2023-07-08T03:55:15;21.10;99.90
5775;DHT22;2913;51.120;6.772;2023-07-08T03:57:45;21.10;99.90
5775;DHT22;2913;51.120;6.772;2023-07-08T04:00:11;21.10;99.90
5775;DHT22;2913;51.120;6.772;2023-07-08T04:02:38;21.00;99.90
5775;DHT22;2913;51.120;6.772;2023-07-08T04:05:07;21.10;99.90
5775;DHT22;2913;51.120;6.772;2023-07-08T04:07:34;21.10;99.90
5775;DHT22;2913;51.120;6.772;2023-07-08T04:10:00;21.20;99.90
5775;DHT22;2913;51.120;6.772;2023-07-08T04:12:27;21.20;99.90
5775;DHT22;2913;51.120;6.772;2023-07-08T04:14:52;21.10;99.90
5775;DHT22;2913;51.120;6.772;2023-07-08T04:17:21;21.30;99.90
5775;DHT22;2913;51.120;6.772;2023-07-08T04:19:49;21.30;99.90
5775;DHT22;2913;51.120;6.772;2023-07-08T04:22:17;21.60;99.90
5775;DHT22;2913;51.120;6.772;2023-07-08T04:24:43;21.60;99.90
5775;DHT22;2913;51.120;6.772;2023-07-08T04:27:17;21.90;99.90
5775;DHT22;2913;51.120;6.772;2023-07-08T04:29:44;22.30;99.90
5775;DHT22;2913;51.120;6.772;2023-07-08T04:32:10;22.80;99.90
5775;DHT22;2913;51.120;6.772;2023-07-08T04:34:38;23.30;99.90
5775;DHT22;2913;51.120;6.772;2023-07-08T04:37:03;23.80;99.90
5775;DHT22;2913;51.120;6.772;2023-07-08T04:39:30;23.60;99.90
5775;DHT22;2913;51.120;6.772;2023-07-08T04:41:56;23.30;99.90
5775;DHT22;2913;51.120;6.772;2023-07-08T04:44:22;23.00;99.90
5775;DHT22;2913;51.120;6.772;2023-07-08T04:46:54;22.60;99.90
5775;DHT22;2913;51.120;6.772;2023-07-08T04:49:23;22.60;99.90
5775;DHT22;2913;51.120;6.772;2023-07-08T04:51:49;22.50;99.90
5775;DHT22;2913;51.120;6.772;2023-07-08T04:54:17;22.40;99.90
5775;DHT22;2913;51.120;6.772;2023-07-08T04:56:46;22.50;99.90
5775;DHT22;2913;51.120;6.772;2023-07-08T04:59:14;22.50;99.90
5775;DHT22;2913;51.120;6.772;2023-07-08T05:01:41;22.90;99.90
5775;DHT22;2913;51.120;6.772;2023-07-08T05:04:14;23.00;99.90
5775;DHT22;2913;51.120;6.772;2023-07-08T05:06:40;23.90;99.90
5775;DHT22;2913;51.120;6.772;2023-07-08T05:09:06;24.70;99.90
5775;DHT22;2913;51.120;6.772;2023-07-08T05:11:32;25.30;98.50
5775;DHT22;2913;51.120;6.772;2023-07-08T05:14:03;25.90;96.20
5775;DHT22;2913;51.120;6.772;2023-07-08T05:16:32;26.80;92.80
5775;DHT22;2913;51.120;6.772;2023-07-08T05:19:00;27.20;90.50
5775;DHT22;2913;51.120;6.772;2023-07-08T05:21:28;27.20;90.30
5775;DHT22;2913;51.120;6.772;2023-07-08T05:23:57;27.00;88.10
5775;DHT22;2913;51.120;6.772;2023-07-08T05:26:22;26.90;88.90
5775;DHT22;2913;51.120;6.772;2023-07-08T05:28:48;26.80;88.50
5775;DHT22;2913;51.120;6.772;2023-07-08T05:31:13;26.70;89.60
5775;DHT22;2913;51.120;6.772;2023-07-08T05:33:41;27.40;91.00
5775;DHT22;2913;51.120;6.772;2023-07-08T05:36:07;27.40;90.70
5775;DHT22;2913;51.120;6.772;2023-07-08T05:38:35;27.80;90.10
5775;DHT22;2913;51.120;6.772;2023-07-08T05:41:03;27.80;86.70
5775;DHT22;2913;51.120;6.772;2023-07-08T05:43:29;28.10;84.50
5775;DHT22;2913;51.120;6.772;2023-07-08T05:46:01;28.20;78.60
5775;DHT22;2913;51.120;6.772;2023-07-08T05:48:29;28.30;80.60
5775;DHT22;2913;51.120;6.772;2023-07-08T05:50:57;28.60;77.80
5775;DHT22;2913;51.120;6.772;2023-07-08T05:53:25;28.70;76.10
5775;DHT22;2913;51.120;6.772;2023-07-08T05:55:51;28.60;76.90
5775;DHT22;2913;51.120;6.772;2023-07-08T05:58:19;28.80;75.40
5775;DHT22;2913;51.120;6.772;2023-07-08T06:00:47;28.70;73.60
5775;DHT22;2913;51.120;6.772;2023-07-08T06:03:12;28.80;75.20
5775;DHT22;2913;51.120;6.772;2023-07-08T06:05:44;28.80;74.00
5775;DHT22;2913;51.120;6.772;2023-07-08T06:08:10;28.90;72.50
5775;DHT22;2913;51.120;6.772;2023-07-08T06:10:44;28.70;72.50
5775;DHT22;2913;51.120;6.772;2023-07-08T06:13:10;29.10;72.60
5775;DHT22;2913;51.120;6.772;2023-07-08T06:15:41;29.40;72.10
5775;DHT22;2913;51.120;6.772;2023-07-08T06:18:07;29.10;71.10
5775;DHT22;2913;51.120;6.772;2023-07-08T06:20:32;28.80;72.70
5775;DHT22;2913;51.120;6.772;2023-07-08T06:23:01;28.90;69.30
5775;DHT22;2913;51.120;6.772;2023-07-08T06:25:27;29.10;69.10
5775;DHT22;2913;51.120;6.772;2023-07-08T06:27:52;29.10;69.60
5775;DHT22;2913;51.120;6.772;2023-07-08T06:30:20;29.30;69.10
5775;DHT22;2913;51.120;6.772;2023-07-08T06:32:48;28.80;66.40
5775;DHT22;2913;51.120;6.772;2023-07-08T06:35:16;28.70;67.30
5775;DHT22;2913;51.120;6.772;2023-07-08T06:37:42;28.70;68.90
5775;DHT22;2913;51.120;6.772;2023-07-08T06:40:10;28.70;67.90
5775;DHT22;2913;51.120;6.772;2023-07-08T06:42:40;29.10;69.70
5775;DHT22;2913;51.120;6.772;2023-07-08T06:45:06;29.30;69.00
5775;DHT22;2913;51.120;6.772;2023-07-08T06:47:32;29.60;68.70
5775;DHT22;2913;51.120;6.772;2023-07-08T06:49:58;29.50;67.00
5775;DHT22;2913;51.120;6.772;2023-07-08T06:52:28;29.50;65.80
5775;DHT22;2913;51.120;6.772;2023-07-08T06:55:00;29.50;65.50
5775;DHT22;2913;51.120;6.772;2023-07-08T06:57:26;29.30;65.00
5775;DHT22;2913;51.120;6.772;2023-07-08T06:59:52;29.10;65.00
5775;DHT22;2913;51.120;6.772;2023-07-08T07:02:17;29.20;63.10
5775;DHT22;2913;51.120;6.772;2023-07-08T07:04:45;29.20;63.50
5775;DHT22;2913;51.120;6.772;2023-07-08T07:07:11;29.10;61.70
5775;DHT22;2913;51.120;6.772;2023-07-08T07:09:37;28.70;60.50
5775;DHT22;2913;51.120;6.772;2023-07-08T07:12:08;28.50;60.00
5775;DHT22;2913;51.120;6.772;2023-07-08T07:14:33;28.60;60.40
5775;DHT22;2913;51.120;6.772;2023-07-08T07:17:04;28.50;60.70
5775;DHT22;2913;51.120;6.772;2023-07-08T07:19:30;28.70;61.40
5775;DHT22;2913;51.120;6.772;2023-07-08T07:21:55;28.70;62.90
5775;DHT22;2913;51.120;6.772;2023-07-08T07:24:21;28.80;61.70
5775;DHT22;2913;51.120;6.772;2023-07-08T07:26:46;28.60;60.70
5775;DHT22;2913;51.120;6.772;2023-07-08T07:29:16;28.50;60.50
5775;DHT22;2913;51.120;6.772;2023-07-08T07:31:42;28.50;60.10
5775;DHT22;2913;51.120;6.772;2023-07-08T07:34:10;28.70;59.90
5775;DHT22;2913;51.120;6.772;2023-07-08T07:36:37;28.40;59.90
5775;DHT22;2913;51.120;6.772;2023-07-08T07:39:03;28.10;59.90
5775;DHT22;2913;51.120;6.772;2023-07-08T07:41:28;28.30;60.30
5775;DHT22;2913;51.120;6.772;2023-07-08T07:43:54;28.50;60.70
5775;DHT22;2913;51.120;6.772;2023-07-08T07:46:22;28.60;60.10
5775;DHT22;2913;51.120;6.772;2023-07-08T07:48:47;28.80;60.10
5775;DHT22;2913;51.120;6.772;2023-07-08T07:51:15;29.10;61.30
5775;DHT22;2913;51.120;6.772;2023-07-08T07:53:41;29.10;60.50
5775;DHT22;2913;51.120;6.772;2023-07-08T07:56:07;29.10;59.50
5775;DHT22;2913;51.120;6.772;2023-07-08T07:58:33;29.10;59.10
5775;DHT22;2913;51.120;6.772;2023-07-08T08:00:59;28.80;59.40
5775;DHT22;2913;51.120;6.772;2023-07-08T08:03:27;29.00;59.90
5775;DHT22;2913;51.120;6.772;2023-07-08T08:05:52;29.00;59.40
5775;DHT22;2913;51.120;6.772;2023-07-08T08:08:19;29.20;59.90
5775;DHT22;2913;51.120;6.772;2023-07-08T08:10:45;29.10;59.20
5775;DHT22;2913;51.120;6.772;2023-07-08T08:13:13;29.20;60.00
5775;DHT22;2913;51.120;6.772;2023-07-08T08:15:39;29.70;60.30
5775;DHT22;2913;51.120;6.772;2023-07-08T08:18:07;29.70;59.00
5775;DHT22;2913;51.120;6.772;2023-07-08T08:20:32;29.70;59.70
5775;DHT22;2913;51.120;6.772;2023-07-08T08:22:58;29.60;58.80
5775;DHT22;2913;51.120;6.772;2023-07-08T08:25:24;29.40;58.70
5775;DHT22;2913;51.120;6.772;2023-07-08T08:27:50;29.10;58.70
5775;DHT22;2913;51.120;6.772;2023-07-08T08:30:17;28.80;59.40
5775;DHT22;2913;51.120;6.772;2023-07-08T08:32:43;28.60;59.40
5775;DHT22;2913;51.120;6.772;2023-07-08T08:35:09;28.60;59.60
5775;DHT22;2913;51.120;6.772;2023-07-08T08:37:37;28.50;59.50
5775;DHT22;2913;51.120;6.772;2023-07-08T08:40:03;28.40;59.70
5775;DHT22;2913;51.120;6.772;2023-07-08T08:42:39;28.30;59.70
5775;DHT22;2913;51.120;6.772;2023-07-08T08:45:09;28.50;59.70
5775;DHT22;2913;51.120;6.772;2023-07-08T08:47:47;28.80;60.70
5775;DHT22;2913;51.120;6.772;2023-07-08T08:50:28;29.00;60.00
5775;DHT22;2913;51.120;6.772;2023-07-08T08:52:58;29.10;60.30
5775;DHT22;2913;51.120;6.772;2023-07-08T08:55:25;29.30;60.40
5775;DHT22;2913;51.120;6.772;2023-07-08T08:58:32;29.50;59.60
5775;DHT22;2913;51.120;6.772;2023-07-08T09:00:55;29.80;59.80
5775;DHT22;2913;51.120;6.772;2023-07-08T09:06:22;29.90;60.10
5775;DHT22;2913;51.120;6.772;2023-07-08T09:08:52;30.10;59.20
5775;DHT22;2913;51.120;6.772;2023-07-08T09:11:30;30.00;59.70
5775;DHT22;2913;51.120;6.772;2023-07-08T09:13:59;30.30;59.40
5775;DHT22;2913;51.120;6.772;2023-07-08T09:16:54;30.60;59.00
5775;DHT22;2913;51.120;6.772;2023-07-08T09:19:29;30.80;58.20
5775;DHT22;2913;51.120;6.772;2023-07-08T09:22:01;30.80;58.30
5775;DHT22;2913;51.120;6.772;2023-07-08T09:27:03;31.00;58.10
5775;DHT22;2913;51.120;6.772;2023-07-08T09:29:32;31.10;58.20
5775;DHT22;2913;51.120;6.772;2023-07-08T09:31:59;31.10;57.30
5775;DHT22;2913;51.120;6.772;2023-07-08T09:34:38;31.10;57.10
5775;DHT22;2913;51.120;6.772;2023-07-08T09:37:29;31.20;56.90
5775;DHT22;2913;51.120;6.772;2023-07-08T09:39:56;31.20;57.00
5775;DHT22;2913;51.120;6.772;2023-07-08T09:42:27;31.30;57.10
5775;DHT22;2913;51.120;6.772;2023-07-08T09:44:58;31.40;57.00
5775;DHT22;2913;51.120;6.772;2023-07-08T09:47:32;31.40;57.00
5775;DHT22;2913;51.120;6.772;2023-07-08T09:50:04;31.60;56.90
5775;DHT22;2913;51.120;6.772;2023-07-08T09:52:38;31.50;56.60
5775;DHT22;2913;51.120;6.772;2023-07-08T09:55:03;31.50;56.70
5775;DHT22;2913;51.120;6.772;2023-07-08T09:57:32;31.60;56.80
5775;DHT22;2913;51.120;6.772;2023-07-08T10:00:00;31.80;56.90
5775;DHT22;2913;51.120;6.772;2023-07-08T10:05:00;31.80;56.40
5775;DHT22;2913;51.120;6.772;2023-07-08T10:07:30;31.90;56.40
5775;DHT22;2913;51.120;6.772;2023-07-08T10:09:59;31.90;56.00
5775;DHT22;2913;51.120;6.772;2023-07-08T10:12:25;31.80;55.50
5775;DHT22;2913;51.120;6.772;2023-07-08T10:14:57;31.80;55.90
5775;DHT22;2913;51.120;6.772;2023-07-08T10:17:26;32.00;56.20
5775;DHT22;2913;51.120;6.772;2023-07-08T10:19:52;32.20;56.00
5775;DHT22;2913;51.120;6.772;2023-07-08T10:22:37;32.10;56.00
5775;DHT22;2913;51.120;6.772;2023-07-08T10:28:01;32.50;55.70
5775;DHT22;2913;51.120;6.772;2023-07-08T10:30:43;32.50;55.90
5775;DHT22;2913;51.120;6.772;2023-07-08T10:33:51;32.20;55.40
5775;DHT22;2913;51.120;6.772;2023-07-08T10:39:24;32.30;55.30
5775;DHT22;2913;51.120;6.772;2023-07-08T10:42:20;32.40;55.20
5775;DHT22;2913;51.120;6.772;2023-07-08T10:56:02;33.20;55.00
5775;DHT22;2913;51.120;6.772;2023-07-08T11:01:56;33.20;55.20
5775;DHT22;2913;51.120;6.772;2023-07-08T11:04:53;33.30;54.90
5775;DHT22;2913;51.120;6.772;2023-07-08T11:07:41;33.20;54.20
5775;DHT22;2913;51.120;6.772;2023-07-08T11:10:22;33.10;54.60
5775;DHT22;2913;51.120;6.772;2023-07-08T11:13:13;33.40;55.20
5775;DHT22;2913;51.120;6.772;2023-07-08T11:15:50;33.50;55.60
5775;DHT22;2913;51.120;6.772;2023-07-08T11:21:08;33.40;54.00
5775;DHT22;2913;51.120;6.772;2023-07-08T11:28:51;33.30;53.20
5775;DHT22;2913;51.120;6.772;2023-07-08T11:31:18;33.80;54.80
5775;DHT22;2913;51.120;6.772;2023-07-08T11:33:47;33.80;53.40
5775;DHT22;2913;51.120;6.772;2023-07-08T11:36:15;34.00;52.90
5775;DHT22;2913;51.120;6.772;2023-07-08T11:38:50;34.30;53.90
5775;DHT22;2913;51.120;6.772;2023-07-08T11:41:18;34.40;52.60
5775;DHT22;2913;51.120;6.772;2023-07-08T11:43:57;34.30;53.10
5775;DHT22;2913;51.120;6.772;2023-07-08T11:46:28;34.40;51.80
5775;DHT22;2913;51.120;6.772;2023-07-08T11:49:05;34.40;51.40
5775;DHT22;2913;51.120;6.772;2023-07-08T11:51:38;34.70;51.40
5775;DHT22;2913;51.120;6.772;2023-07-08T11:54:30;34.70;52.10
5775;DHT22;2913;51.120;6.772;2023-07-08T11:59:28;34.40;51.60
5775;DHT22;2913;51.120;6.772;2023-07-08T12:02:00;34.70;52.30
5775;DHT22;2913;51.120;6.772;2023-07-08T12:04:32;34.60;50.50
5775;DHT22;2913;51.120;6.772;2023-07-08T12:07:06;34.80;50.80
5775;DHT22;2913;51.120;6.772;2023-07-08T12:09:44;34.50;49.60
5775;DHT22;2913;51.120;6.772;2023-07-08T12:12:27;34.60;50.50
5775;DHT22;2913;51.120;6.772;2023-07-08T12:15:04;34.50;49.60
5775;DHT22;2913;51.120;6.772;2023-07-08T12:17:35;34.80;49.70
5775;DHT22;2913;51.120;6.772;2023-07-08T12:20:02;34.90;49.80
5775;DHT22;2913;51.120;6.772;2023-07-08T12:22:31;35.10;50.30
5775;DHT22;2913;51.120;6.772;2023-07-08T12:25:02;35.30;49.50
5775;DHT22;2913;51.120;6.772;2023-07-08T12:27:32;35.30;49.20
5775;DHT22;2913;51.120;6.772;2023-07-08T12:30:01;35.30;49.40
5775;DHT22;2913;51.120;6.772;2023-07-08T12:32:29;35.20;49.80
5775;DHT22;2913;51.120;6.772;2023-07-08T12:34:54;35.10;49.20
5775;DHT22;2913;51.120;6.772;2023-07-08T12:37:22;35.20;49.30
5775;DHT22;2913;51.120;6.772;2023-07-08T12:39:58;35.30;49.10
5775;DHT22;2913;51.120;6.772;2023-07-08T12:42:30;35.30;49.30
5775;DHT22;2913;51.120;6.772;2023-07-08T12:44:58;35.10;49.40
5775;DHT22;2913;51.120;6.772;2023-07-08T12:47:26;35.30;48.90
5775;DHT22;2913;51.120;6.772;2023-07-08T12:49:54;35.30;48.50
5775;DHT22;2913;51.120;6.772;2023-07-08T12:52:25;35.40;48.70
5775;DHT22;2913;51.120;6.772;2023-07-08T12:54:53;35.50;49.00
5775;DHT22;2913;51.120;6.772;2023-07-08T12:57:18;35.40;48.00
5775;DHT22;2913;51.120;6.772;2023-07-08T12:59:47;35.70;48.60
5775;DHT22;2913;51.120;6.772;2023-07-08T13:02:19;35.60;48.10
5775;DHT22;2913;51.120;6.772;2023-07-08T13:04:49;35.70;48.20
5775;DHT22;2913;51.120;6.772;2023-07-08T13:07:37;35.70;48.00
5775;DHT22;2913;51.120;6.772;2023-07-08T13:10:13;35.70;48.10
5775;DHT22;2913;51.120;6.772;2023-07-08T13:12:41;35.80;48.40
5775;DHT22;2913;51.120;6.772;2023-07-08T13:15:14;35.80;48.00
5775;DHT22;2913;51.120;6.772;2023-07-08T13:17:42;35.70;47.80
5775;DHT22;2913;51.120;6.772;2023-07-08T13:20:14;35.40;47.90
5775;DHT22;2913;51.120;6.772;2023-07-08T13:22:54;35.30;46.10
5775;DHT22;2913;51.120;6.772;2023-07-08T13:25:33;35.40;47.20
5775;DHT22;2913;51.120;6.772;2023-07-08T13:27:59;35.60;46.90
5775;DHT22;2913;51.120;6.772;2023-07-08T13:30:30;35.70;48.10
5775;DHT22;2913;51.120;6.772;2023-07-08T13:32:59;35.80;48.10
5775;DHT22;2913;51.120;6.772;2023-07-08T13:35:28;36.00;47.80
5775;DHT22;2913;51.120;6.772;2023-07-08T13:38:00;36.00;48.20
5775;DHT22;2913;51.120;6.772;2023-07-08T13:40:29;36.10;48.50
5775;DHT22;2913;51.120;6.772;2023-07-08T13:42:57;36.10;48.20
5775;DHT22;2913;51.120;6.772;2023-07-08T13:45:30;36.20;46.80
5775;DHT22;2913;51.120;6.772;2023-07-08T13:48:12;36.20;47.50
5775;DHT22;2913;51.120;6.772;2023-07-08T13:51:01;36.10;48.10
5775;DHT22;2913;51.120;6.772;2023-07-08T13:58:50;36.30;47.60
5775;DHT22;2913;51.120;6.772;2023-07-08T14:01:24;36.40;47.70
5775;DHT22;2913;51.120;6.772;2023-07-08T14:03:54;36.40;47.50
5775;DHT22;2913;51.120;6.772;2023-07-08T14:06:23;36.30;47.20
5775;DHT22;2913;51.120;6.772;2023-07-08T14:08:50;36.50;48.00
5775;DHT22;2913;51.120;6.772;2023-07-08T14:11:16;36.00;46.40
5775;DHT22;2913;51.120;6.772;2023-07-08T14:13:42;36.10;47.10
5775;DHT22;2913;51.120;6.772;2023-07-08T14:16:30;36.20;47.90
5775;DHT22;2913;51.120;6.772;2023-07-08T14:19:02;36.00;47.90
5775;DHT22;2913;51.120;6.772;2023-07-08T14:21:32;35.80;48.30
5775;DHT22;2913;51.120;6.772;2023-07-08T14:23:58;35.50;48.50
5775;DHT22;2913;51.120;6.772;2023-07-08T14:26:27;35.50;48.60
5775;DHT22;2913;51.120;6.772;2023-07-08T14:28:55;35.60;48.80
5775;DHT22;2913;51.120;6.772;2023-07-08T14:31:25;35.50;47.50
5775;DHT22;2913;51.120;6.772;2023-07-08T14:34:06;35.50;48.20
5775;DHT22;2913;51.120;6.772;2023-07-08T14:36:34;35.30;48.30
5775;DHT22;2913;51.120;6.772;2023-07-08T14:39:00;35.50;48.60
5775;DHT22;2913;51.120;6.772;2023-07-08T14:41:27;35.70;49.10
5775;DHT22;2913;51.120;6.772;2023-07-08T14:43:55;35.90;48.70
5775;DHT22;2913;51.120;6.772;2023-07-08T14:46:23;36.00;48.20
5775;DHT22;2913;51.120;6.772;2023-07-08T14:48:51;36.00;48.60
5775;DHT22;2913;51.120;6.772;2023-07-08T14:51:21;35.90;48.80
5775;DHT22;2913;51.120;6.772;2023-07-08T14:53:46;36.00;48.50
5775;DHT22;2913;51.120;6.772;2023-07-08T14:56:15;36.00;48.80
5775;DHT22;2913;51.120;6.772;2023-07-08T14:58:45;36.00;48.60
5775;DHT22;2913;51.120;6.772;2023-07-08T15:01:20;36.00;48.80
5775;DHT22;2913;51.120;6.772;2023-07-08T15:03:49;35.90;48.90
5775;DHT22;2913;51.120;6.772;2023-07-08T15:06:14;36.00;48.60
5775;DHT22;2913;51.120;6.772;2023-07-08T15:08:42;35.70;48.90
5775;DHT22;2913;51.120;6.772;2023-07-08T15:11:11;35.60;48.40
5775;DHT22;2913;51.120;6.772;2023-07-08T15:13:37;35.50;48.50
5775;DHT22;2913;51.120;6.772;2023-07-08T15:16:12;35.50;48.50
5775;DHT22;2913;51.120;6.772;2023-07-08T15:18:39;35.60;48.30
5775;DHT22;2913;51.120;6.772;2023-07-08T15:21:12;35.40;48.30
5775;DHT22;2913;51.120;6.772;2023-07-08T15:23:43;35.40;48.60
5775;DHT22;2913;51.120;6.772;2023-07-08T15:26:12;35.40;49.00
5775;DHT22;2913;51.120;6.772;2023-07-08T15:28:48;35.60;49.00
5775;DHT22;2913;51.120;6.772;2023-07-08T15:31:23;35.60;49.00
5775;DHT22;2913;51.120;6.772;2023-07-08T15:33:52;35.70;49.10
5775;DHT22;2913;51.120;6.772;2023-07-08T15:36:18;35.80;48.90
5775;DHT22;2913;51.120;6.772;2023-07-08T15:38:44;35.60;49.10
5775;DHT22;2913;51.120;6.772;2023-07-08T15:41:19;35.60;48.50
5775;DHT22;2913;51.120;6.772;2023-07-08T15:43:46;35.60;48.80
5775;DHT22;2913;51.120;6.772;2023-07-08T15:46:12;35.70;48.80
5775;DHT22;2913;51.120;6.772;2023-07-08T15:48:38;36.10;48.90
5775;DHT22;2913;51.120;6.772;2023-07-08T15:51:07;36.00;48.10
5775;DHT22;2913;51.120;6.772;2023-07-08T15:53:33;36.00;48.40
5775;DHT22;2913;51.120;6.772;2023-07-08T15:55:58;36.30;48.30
5775;DHT22;2913;51.120;6.772;2023-07-08T15:58:27;36.30;48.90
5775;DHT22;2913;51.120;6.772;2023-07-08T16:00:54;36.10;48.10
5775;DHT22;2913;51.120;6.772;2023-07-08T16:03:25;36.20;48.50
5775;DHT22;2913;51.120;6.772;2023-07-08T16:05:55;36.10;48.10
5775;DHT22;2913;51.120;6.772;2023-07-08T16:08:21;36.20;48.20
5775;DHT22;2913;51.120;6.772;2023-07-08T16:10:52;36.30;48.20
5775;DHT22;2913;51.120;6.772;2023-07-08T16:13:23;36.40;48.20
5775;DHT22;2913;51.120;6.772;2023-07-08T16:15:55;36.10;47.50
5775;DHT22;2913;51.120;6.772;2023-07-08T16:18:23;36.00;47.80
5775;DHT22;2913;51.120;6.772;2023-07-08T16:20:49;36.00;48.20
5775;DHT22;2913;51.120;6.772;2023-07-08T16:23:17;36.10;47.60
5775;DHT22;2913;51.120;6.772;2023-07-08T16:25:45;36.20;48.10
5775;DHT22;2913;51.120;6.772;2023-07-08T16:30:44;36.20;48.70
5775;DHT22;2913;51.120;6.772;2023-07-08T16:33:10;35.70;49.10
5775;DHT22;2913;51.120;6.772;2023-07-08T16:35:41;35.70;49.60
5775;DHT22;2913;51.120;6.772;2023-07-08T16:38:07;35.30;49.90
5775;DHT22;2913;51.120;6.772;2023-07-08T16:40:33;35.30;49.90
5775;DHT22;2913;51.120;6.772;2023-07-08T16:42:59;35.30;50.10
5775;DHT22;2913;51.120;6.772;2023-07-08T16:45:26;35.10;50.60
5775;DHT22;2913;51.120;6.772;2023-07-08T16:47:54;35.00;50.80
5775;DHT22;2913;51.120;6.772;2023-07-08T16:50:25;35.00;51.00
5775;DHT22;2913;51.120;6.772;2023-07-08T16:52:51;34.90;51.00
5775;DHT22;2913;51.120;6.772;2023-07-08T16:55:19;34.70;50.90
5775;DHT22;2913;51.120;6.772;2023-07-08T16:57:49;34.60;51.70
5775;DHT22;2913;51.120;6.772;2023-07-08T17:00:18;34.60;51.30
5775;DHT22;2913;51.120;6.772;2023-07-08T17:02:48;34.60;51.70
5775;DHT22;2913;51.120;6.772;2023-07-08T17:05:27;34.60;51.50
5775;DHT22;2913;51.120;6.772;2023-07-08T17:07:53;34.50;50.80
5775;DHT22;2913;51.120;6.772;2023-07-08T17:10:20;34.50;51.40
5775;DHT22;2913;51.120;6.772;2023-07-08T17:12:46;34.50;51.90
5775;DHT22;2913;51.120;6.772;2023-07-08T17:15:15;34.40;52.30